Aviation Digital Data Service (ADDS)

Output produced by METARs form (0233 UTC 31 August 2015)
found at http://aviationweather.gov/adds/metars/
 
KORH 302330Z 3100/3124 27004KT P6SM SCT080 BKN150 
     FM310800 25006KT P6SM SCT250 
     FM311700 27010KT P6SM SCT250